Okha, Russia
Current Conditions -  °F | °C
As of 2:00 PM on Wednesday 26 Nov 2014 (Local Time) from UHSS Reporting Station
Clear Clear  
Wind Chill: 38°   Ceiling: Unl
Heat Index: 41°   Visibility: 6mi
Dew Point: 30°   Wind: 4mph
Humidity: 65%   Direction: 230°SW
Pressure: 30.18"   Gusts: NA
Location:  53.57°N, 142.95°E
Report Text: UHSS 260300Z 23002MPS 9999 SKC 05/M01 Q1022 NOSIG RMKQFE765/1020 01CLRD65
Loading
Personal Weather Stations






























Interactive Weather Map New forecast layout! Learn more

10-Day Weather Forecast

Advertisements
Track Severe Weather on mobile